createdAt,value
2023-03-07T00:00:42.459Z,40.22
2023-03-07T00:03:11.289Z,43.80
2023-03-07T00:05:37.868Z,36.63
2023-03-07T00:08:04.670Z,40.75
2023-03-07T00:10:31.116Z,37.60
2023-03-07T00:12:57.529Z,36.95
2023-03-07T00:15:23.961Z,38.72
2023-03-07T00:17:50.379Z,34.83
2023-03-07T00:20:17.004Z,33.80
2023-03-07T00:22:44.387Z,27.35
2023-03-07T00:25:10.953Z,38.33
2023-03-07T00:27:37.354Z,38.38
2023-03-07T00:30:04.829Z,37.25
2023-03-07T00:32:32.124Z,50.03
2023-03-07T00:34:59.202Z,37.65
2023-03-07T00:37:25.668Z,39.38
2023-03-07T00:39:52.114Z,40.60
2023-03-07T00:42:18.536Z,40.67
2023-03-07T00:44:45.613Z,34.20
2023-03-07T00:47:12.046Z,29.48
2023-03-07T00:49:38.494Z,34.88
2023-03-07T00:52:05.019Z,26.23
2023-03-07T00:54:31.450Z,32.33
2023-03-07T00:56:57.886Z,28.50
2023-03-07T00:59:24.280Z,33.92
2023-03-07T01:01:50.755Z,28.05
2023-03-07T01:04:17.212Z,33.33
2023-03-07T01:06:43.648Z,32.53
2023-03-07T01:09:10.760Z,34.92
2023-03-07T01:11:37.810Z,42.45
2023-03-07T01:14:05.511Z,37.25
2023-03-07T01:16:33.439Z,31.33
2023-03-07T01:19:01.266Z,34.08
2023-03-07T01:21:29.280Z,30.45
2023-03-07T01:23:56.029Z,37.17
2023-03-07T01:26:23.696Z,34.65
2023-03-07T01:28:50.835Z,31.75
2023-03-07T01:31:17.270Z,32.42
2023-03-07T01:33:43.753Z,35.60
2023-03-07T01:36:16.497Z,42.72
2023-03-07T01:38:43.039Z,38.92
2023-03-07T01:41:09.565Z,33.72
2023-03-07T01:43:36.009Z,38.17
2023-03-07T01:46:22.758Z,35.13
2023-03-07T01:48:52.194Z,35.83
2023-03-07T01:51:19.190Z,31.65
2023-03-07T01:53:46.863Z,33.83
2023-03-07T01:56:13.433Z,32.85
2023-03-07T01:58:40.054Z,38.40
2023-03-07T02:01:09.292Z,33.85
2023-03-07T02:03:39.818Z,34.30
2023-03-07T02:06:09.592Z,30.17
2023-03-07T02:08:37.138Z,34.15
2023-03-07T02:11:03.877Z,35.28
2023-03-07T02:13:30.556Z,36.30
2023-03-07T02:15:57.846Z,38.28
2023-03-07T02:18:25.724Z,35.30
2023-03-07T02:20:57.989Z,33.85
2023-03-07T02:23:27.336Z,39.78
2023-03-07T02:26:03.370Z,34.35
2023-03-07T02:28:30.553Z,33.58
2023-03-07T02:30:58.052Z,43.38
2023-03-07T02:33:25.202Z,35.83
2023-03-07T02:35:56.007Z,36.28
2023-03-07T02:38:23.150Z,33.65
2023-03-07T02:40:50.590Z,36.25
2023-03-07T02:43:16.998Z,36.63
2023-03-07T02:45:43.469Z,34.80
2023-03-07T02:48:09.988Z,32.15
2023-03-07T02:50:36.486Z,33.78
2023-03-07T02:53:03.382Z,36.75
2023-03-07T02:55:30.014Z,36.40
2023-03-07T02:57:56.456Z,34.10
2023-03-07T03:00:23.031Z,31.17
2023-03-07T03:02:49.448Z,34.28
2023-03-07T03:05:15.971Z,32.47
2023-03-07T03:07:42.481Z,36.47
2023-03-07T03:10:09.388Z,27.35
2023-03-07T03:12:35.802Z,31.42
2023-03-07T03:15:02.336Z,36.47
2023-03-07T03:17:28.980Z,30.48
2023-03-07T03:19:56.451Z,36.40
2023-03-07T03:22:23.033Z,32.05
2023-03-07T03:24:49.603Z,35.05
2023-03-07T03:27:16.019Z,37.78
2023-03-07T03:29:42.522Z,35.33
2023-03-07T03:32:08.968Z,37.83
2023-03-07T03:34:35.514Z,35.95
2023-03-07T03:37:01.933Z,31.50
2023-03-07T03:39:29.162Z,34.28
2023-03-07T03:41:57.102Z,34.92
2023-03-07T03:44:23.645Z,37.05
2023-03-07T03:46:50.221Z,35.90
2023-03-07T03:49:17.002Z,35.85
2023-03-07T03:51:43.457Z,35.58
2023-03-07T03:54:10.014Z,32.17
2023-03-07T03:56:36.580Z,35.05
2023-03-07T03:59:03.501Z,38.53
2023-03-07T04:01:30.151Z,33.42
2023-03-07T04:03:57.187Z,35.75
2023-03-07T04:06:25.308Z,34.60
2023-03-07T04:08:52.741Z,36.22
2023-03-07T04:11:19.443Z,36.50
2023-03-07T04:13:45.908Z,41.58
2023-03-07T04:16:12.382Z,38.80
2023-03-07T04:18:40.203Z,36.47
2023-03-07T04:21:13.041Z,32.55
2023-03-07T04:23:39.517Z,31.42
2023-03-07T04:26:07.250Z,30.70
2023-03-07T04:28:44.434Z,29.23
2023-03-07T04:31:12.115Z,31.23
2023-03-07T04:33:38.796Z,32.92
2023-03-07T04:36:05.710Z,29.17
2023-03-07T04:38:32.387Z,34.92
2023-03-07T04:40:59.087Z,30.35
2023-03-07T04:43:25.786Z,36.72
2023-03-07T04:45:52.766Z,30.00
2023-03-07T04:48:19.569Z,33.35
2023-03-07T04:50:48.715Z,36.53
2023-03-07T04:53:15.129Z,27.98
2023-03-07T04:55:41.531Z,34.60
2023-03-07T04:58:12.820Z,32.75
2023-03-07T05:00:42.776Z,31.90
2023-03-07T05:03:09.676Z,29.73
2023-03-07T05:05:37.687Z,28.10
2023-03-07T05:08:04.762Z,30.67
2023-03-07T05:10:34.658Z,31.90
2023-03-07T05:13:01.259Z,25.63
2023-03-07T05:15:28.028Z,34.80
2023-03-07T05:17:54.492Z,34.47
2023-03-07T05:20:20.872Z,32.63
2023-03-07T05:22:47.407Z,27.00
2023-03-07T05:25:13.904Z,29.50
2023-03-07T05:27:40.619Z,31.30
2023-03-07T05:30:07.479Z,29.92
2023-03-07T05:32:33.999Z,29.90
2023-03-07T05:35:00.472Z,30.25
2023-03-07T05:37:27.023Z,29.70
2023-03-07T05:39:53.877Z,34.50
2023-03-07T05:42:20.475Z,37.78
2023-03-07T05:44:46.918Z,43.75
2023-03-07T05:47:13.332Z,40.60
2023-03-07T05:49:39.824Z,39.80
2023-03-07T05:52:06.389Z,33.20
2023-03-07T05:54:32.953Z,32.20
2023-03-07T05:56:59.450Z,31.90
2023-03-07T05:59:25.941Z,33.55
2023-03-07T06:01:52.422Z,37.15
2023-03-07T06:04:18.912Z,30.25
2023-03-07T06:06:45.691Z,30.25
2023-03-07T06:09:12.170Z,34.45
2023-03-07T06:11:38.718Z,35.88
2023-03-07T06:14:05.205Z,36.70
2023-03-07T06:16:31.708Z,36.80
2023-03-07T06:18:58.139Z,33.53
2023-03-07T06:21:24.579Z,36.83
2023-03-07T06:23:51.055Z,35.55
2023-03-07T06:26:17.550Z,41.63
2023-03-07T06:28:44.164Z,35.60
2023-03-07T06:31:11.715Z,46.70
2023-03-07T06:33:38.268Z,37.83
2023-03-07T06:36:05.625Z,39.45
2023-03-07T06:38:32.137Z,41.22
2023-03-07T06:40:58.620Z,37.10
2023-03-07T06:43:25.128Z,40.42
2023-03-07T06:45:51.711Z,36.83
2023-03-07T06:48:18.367Z,42.45
2023-03-07T06:50:45.342Z,44.38
2023-03-07T06:53:11.881Z,38.42
2023-03-07T06:55:38.486Z,34.42
2023-03-07T06:58:05.128Z,37.08
2023-03-07T07:00:31.699Z,42.05
2023-03-07T07:02:58.381Z,39.35
2023-03-07T07:05:24.946Z,35.97
2023-03-07T07:07:51.570Z,31.95
2023-03-07T07:10:18.105Z,40.78
2023-03-07T07:12:44.490Z,40.08
2023-03-07T07:15:10.989Z,37.50
2023-03-07T07:17:39.171Z,40.17
2023-03-07T07:20:06.412Z,33.67
2023-03-07T07:22:33.108Z,35.97
2023-03-07T07:24:59.604Z,32.05
2023-03-07T07:27:26.201Z,30.30
2023-03-07T07:29:52.703Z,34.08
2023-03-07T07:32:19.231Z,51.97
2023-03-07T07:34:45.833Z,42.22
2023-03-07T07:37:12.330Z,31.48
2023-03-07T07:39:41.442Z,28.58
2023-03-07T17:19:29.037Z,1220.75
2023-03-07T17:21:56.186Z,1089.90
2023-03-07T17:24:23.491Z,825.67
2023-03-07T17:26:50.315Z,308.27
2023-03-07T17:29:25.533Z,76.13
2023-03-07T17:31:51.967Z,62.22
2023-03-07T17:34:29.829Z,76.45
2023-03-07T17:36:57.562Z,67.72
2023-03-07T17:39:25.077Z,61.90
2023-03-07T17:41:51.776Z,47.00
2023-03-07T17:44:19.161Z,56.92
2023-03-07T17:46:46.493Z,56.15
2023-03-07T17:49:13.069Z,55.00
2023-03-07T17:51:40.449Z,56.67
2023-03-07T17:54:08.320Z,57.72
2023-03-07T17:56:35.931Z,76.50
2023-03-07T17:59:02.523Z,77.88
2023-03-07T18:01:30.956Z,871.95
2023-03-07T18:03:57.898Z,282.15
2023-03-07T18:06:27.475Z,139.68
2023-03-07T18:08:53.900Z,110.80
2023-03-07T18:11:21.773Z,103.70
2023-03-07T18:13:48.227Z,114.80
2023-03-07T18:16:20.668Z,119.32
2023-03-07T18:18:58.335Z,126.45
2023-03-07T18:21:26.821Z,168.52
2023-03-07T18:23:53.250Z,169.45
2023-03-07T18:26:21.841Z,170.43
2023-03-07T18:28:49.844Z,170.55
2023-03-07T18:31:18.739Z,180.02
2023-03-07T18:33:45.604Z,178.23
2023-03-07T18:36:14.471Z,173.43
2023-03-07T18:38:41.225Z,153.27
2023-03-07T18:41:10.149Z,154.98
2023-03-07T18:43:36.656Z,148.10
2023-03-07T18:46:04.979Z,138.85
2023-03-07T18:48:34.541Z,145.25
2023-03-07T18:51:02.101Z,146.23
2023-03-07T18:53:29.749Z,137.57
2023-03-07T18:55:56.306Z,116.05
2023-03-07T18:58:24.492Z,108.93
2023-03-07T19:00:50.964Z,94.93
2023-03-07T19:03:18.518Z,90.32
2023-03-07T19:05:48.673Z,83.38
2023-03-07T19:08:17.770Z,82.95
2023-03-07T19:10:45.160Z,93.72
2023-03-07T19:13:13.616Z,83.25
2023-03-07T19:15:40.126Z,79.68
2023-03-07T19:18:07.507Z,131.38
2023-03-07T19:20:34.062Z,64.47
2023-03-07T19:23:04.558Z,81.13
2023-03-07T19:25:32.011Z,59.65
2023-03-07T19:27:59.309Z,66.32
2023-03-07T19:30:25.867Z,68.72
2023-03-07T19:32:53.260Z,59.15
2023-03-07T19:35:19.711Z,56.33
2023-03-07T19:37:47.072Z,52.03
2023-03-07T19:40:13.667Z,53.80
2023-03-07T19:42:42.512Z,57.58
2023-03-07T19:45:10.246Z,62.58
2023-03-07T19:47:37.671Z,54.67
2023-03-07T19:50:05.521Z,53.65
2023-03-07T19:52:32.037Z,43.85
2023-03-07T19:55:02.456Z,45.90
2023-03-07T19:57:28.931Z,42.95
2023-03-07T19:59:57.575Z,39.72
2023-03-07T20:02:24.108Z,42.05
2023-03-07T20:04:50.684Z,45.35
2023-03-07T20:07:19.423Z,45.25
2023-03-07T20:09:45.889Z,55.25
2023-03-07T20:12:13.445Z,45.95
2023-03-07T20:14:42.832Z,51.45
2023-03-07T20:17:10.565Z,43.75
2023-03-07T20:19:38.348Z,41.95
2023-03-07T20:22:05.511Z,42.35
2023-03-07T20:24:33.161Z,34.72
2023-03-07T20:27:01.597Z,38.97
2023-03-07T20:29:28.126Z,38.35
2023-03-07T20:31:55.889Z,36.00
2023-03-07T20:34:25.355Z,35.50
2023-03-07T20:36:53.027Z,43.08
2023-03-07T20:39:20.483Z,33.00
2023-03-07T20:41:48.304Z,38.95
2023-03-07T20:44:15.236Z,36.05
2023-03-07T20:46:44.487Z,39.25
2023-03-07T20:49:12.701Z,37.00
2023-03-07T20:51:42.378Z,36.90
2023-03-07T20:54:12.208Z,37.00
2023-03-07T20:56:42.444Z,34.92
2023-03-07T20:59:10.823Z,36.42
2023-03-07T21:01:37.385Z,27.65
2023-03-07T21:04:07.305Z,30.65
2023-03-07T21:06:34.637Z,28.13
2023-03-07T21:09:03.464Z,28.13
2023-03-07T21:11:31.475Z,29.08
2023-03-07T21:13:59.258Z,27.50
2023-03-07T21:16:28.214Z,25.80
2023-03-07T21:19:01.371Z,25.15
2023-03-07T21:21:28.647Z,26.23
2023-03-07T21:23:58.395Z,22.25
2023-03-07T21:26:26.393Z,26.45
2023-03-07T21:28:53.893Z,25.25
2023-03-07T21:31:21.621Z,23.55
2023-03-07T21:33:57.497Z,25.95
2023-03-07T21:36:27.877Z,29.27
2023-03-07T21:38:55.281Z,29.25
2023-03-07T21:41:22.321Z,22.83
2023-03-07T21:43:51.315Z,30.02
2023-03-07T21:46:21.610Z,31.48
2023-03-07T21:48:49.249Z,32.35
2023-03-07T21:51:15.928Z,33.55
2023-03-07T21:53:43.330Z,32.00
2023-03-07T21:56:10.667Z,29.92
2023-03-07T21:58:44.466Z,26.92
2023-03-07T22:01:17.358Z,33.08
2023-03-07T22:03:45.547Z,27.15
2023-03-07T22:06:13.270Z,29.95
2023-03-07T22:08:40.555Z,39.20
2023-03-07T22:11:08.218Z,33.40
2023-03-07T22:13:35.801Z,33.58
2023-03-07T22:16:08.383Z,35.22
2023-03-07T22:18:35.397Z,39.28
2023-03-07T22:24:01.744Z,34.50
2023-03-07T22:26:42.689Z,35.28
2023-03-07T22:29:09.107Z,41.78
2023-03-07T22:31:36.484Z,38.60
2023-03-07T22:34:03.069Z,40.70
2023-03-07T22:36:31.305Z,35.70
2023-03-07T22:38:57.850Z,35.67
2023-03-07T22:41:25.462Z,38.40
2023-03-07T22:43:52.648Z,34.92
2023-03-07T22:46:20.224Z,43.72
2023-03-07T22:48:46.829Z,30.33
2023-03-07T22:51:15.773Z,32.50
2023-03-07T22:53:42.294Z,31.70
2023-03-07T22:56:13.991Z,33.90
2023-03-07T22:58:40.473Z,27.35
2023-03-07T23:01:17.750Z,26.83
2023-03-07T23:03:44.341Z,30.35
2023-03-07T23:06:11.477Z,28.73
2023-03-07T23:08:38.290Z,28.52
2023-03-07T23:11:06.548Z,26.80
2023-03-07T23:13:34.235Z,25.52
2023-03-07T23:16:21.473Z,23.02
2023-03-07T23:18:50.727Z,22.00
2023-03-07T23:21:19.129Z,23.25
2023-03-07T23:23:46.378Z,21.20
2023-03-07T23:26:18.337Z,19.13
2023-03-07T23:28:46.156Z,26.25
2023-03-07T23:31:20.842Z,16.92
2023-03-07T23:33:49.076Z,24.05
2023-03-07T23:36:17.236Z,17.23
2023-03-07T23:38:46.454Z,20.15
2023-03-07T23:41:14.307Z,17.55
2023-03-07T23:43:41.868Z,15.30
2023-03-07T23:46:09.954Z,15.20
2023-03-07T23:48:40.378Z,19.38
2023-03-07T23:51:08.368Z,19.67
2023-03-07T23:53:36.169Z,14.27
2023-03-07T23:56:05.374Z,11.23
2023-03-07T23:58:33.252Z,9.93
